East Hartford, CT

6:02 AM EDT on September 18, 2014 (GMT -0400)
Wethersfield Central | Change Station
CLOSE
Current Station
Personal Weather Station
Location: Wethersfield, CT
Elevation: 92 ft
Nearby Weather Stations

Elev 92 ft 41.68 °N, 72.67 °W | Updated 23 seconds ago

Mostly Cloudy
Mostly Cloudy
42.7 °F
Feels Like 43 °F
N
0.0
Wind Variable Wind from North
Gusts 0.0 mph

Today
High -- | Low -- °F
--% Chance of Precip.
Yesterday
High -- | Low -- °F
Precip. -- in
6:33 AM 6:54 PM
Waning Crescent, 28% visible
Pressure 29.99 in
Visibility 6.0 miles
Clouds Mostly Cloudy 200 ft
Windchill 43 °F
Dew Point 42 °F
Humidity 96%
Rainfall -999.00 in
Snow Depth Not available.
UV 0 out of 12
Pollen 3.00 out of 12
Ozone Good
PM2.5 Good
Flu Activity Not available.
METAR KHFD 180953Z AUTO 00000KT 6SM BKN002 08/07 A2998 RMK AO2 SLP153 T00780072

More Conditions Fewer Conditions

Pressure 29.99 in
Visibility 6.0 miles
Clouds Mostly Cloudy 200 ft
Windchill 43 °F
Dew Point 42 °F
Humidity 96%
Rainfall -999.00 in
Snow Depth Not available.
UV 0 out of 12
Pollen 3.00 out of 12
Ozone Good
PM2.5 Good
Flu Activity Not available.
METAR KHFD 180953Z AUTO 00000KT 6SM BKN002 08/07 A2998 RMK AO2 SLP153 T00780072

More Conditions Fewer Conditions

10-Day Weather Forecast

Almanac

Astronomy

Sep. 18, 2014 Rise Set
Actual Time 6:33 AM EDT 6:54 PM EDT
Civil Twilight 6:05 AM EDT 7:22 PM EDT
Nautical Twilight 5:33 AM EDT 7:55 PM EDT
Astronomical Twilight 4:59 AM EDT 8:28 PM EDT
Moon 1:19 AM EDT 3:47 PM EDT
Length of Visible Light 13h 16m
Length of Day
12h 21m
Tomorrow will be 2m 47s shorter.
Waning Crescent, 28% of the Moon is Illuminated
Today
Waning Crescent
Sep 24
New
Oct 1
First Quarter
Oct 8
Full
Oct 15
Last Quarter

Today's Extremes

State Highs State Lows

Community

WunderPhotos

Upload Photos

1,754,313 photos uploaded!

Nearby

Air Quality

  Air Quality AQ Index Pollutant
Yesterday Good
OZONE
Yesterday Good
PM2.5
Current Good
PM2.5
Current Good
OZONE
Thursday Good
PM2.5
Thursday Good
OZONE

Snow Depth

Station Depth Elevation
No new snow has been reported.

Earthquake Activity

City Distance Mag. Time & Date
No recent earthquake activity has been reported nearby.
Minimum magnitude displayed is 2.5.

Coastal Water Temperatures

Place Temperature
New London, CT 68.0 °F
Newport, RI 68.0 °F
Quonset Point, RI 69.1 °F
Conimicut Light, RI 69.1 °F
Providence, RI 69.1 °F

Nearby Weather Stations